createdAt,value
2019-05-20T00:00:49.992Z,12.92
2019-05-20T00:03:19.464Z,13.00
2019-05-20T00:05:48.990Z,13.05
2019-05-20T00:08:20.772Z,13.08
2019-05-20T00:10:50.343Z,13.11
2019-05-20T00:13:39.184Z,13.11
2019-05-20T00:16:08.664Z,13.10
2019-05-20T00:18:38.128Z,13.16
2019-05-20T00:21:07.797Z,13.28
2019-05-20T00:23:37.367Z,13.33
2019-05-20T00:26:06.819Z,13.40
2019-05-20T00:28:55.637Z,12.92
2019-05-20T00:31:26.687Z,13.40
2019-05-20T00:33:56.166Z,13.48
2019-05-20T00:36:25.671Z,13.55
2019-05-20T00:38:56.746Z,13.61
2019-05-20T00:41:26.243Z,13.68
2019-05-20T00:43:55.907Z,13.75
2019-05-20T00:46:25.399Z,13.80
2019-05-20T00:48:54.887Z,13.75
2019-05-20T00:51:24.390Z,13.81
2019-05-20T00:53:53.896Z,13.84
2019-05-20T00:56:23.366Z,13.78
2019-05-20T00:58:53.009Z,13.78
2019-05-20T01:01:22.567Z,13.77
2019-05-20T01:03:52.738Z,13.74
2019-05-20T01:06:22.270Z,13.78
2019-05-20T01:08:51.825Z,13.68
2019-05-20T01:11:24.125Z,13.62
2019-05-20T01:13:53.743Z,13.54
2019-05-20T01:16:23.269Z,13.53
2019-05-20T01:18:52.742Z,13.43
2019-05-20T01:21:22.272Z,13.38
2019-05-20T01:23:51.775Z,13.22
2019-05-20T01:26:21.280Z,13.27
2019-05-20T01:28:50.788Z,13.24
2019-05-20T01:31:20.466Z,13.22
2019-05-20T01:33:49.925Z,13.26
2019-05-20T01:36:19.445Z,13.25
2019-05-20T01:38:48.955Z,13.20
2019-05-20T01:41:18.477Z,13.10
2019-05-20T01:43:48.022Z,12.95
2019-05-20T01:46:17.515Z,12.99
2019-05-20T01:48:47.044Z,12.94
2019-05-20T01:51:16.567Z,12.93
2019-05-20T01:53:46.133Z,12.89
2019-05-20T01:56:21.487Z,12.29
2019-05-20T01:58:52.803Z,12.90
2019-05-20T02:01:23.840Z,12.80
2019-05-20T02:03:53.350Z,12.82
2019-05-20T02:06:22.858Z,12.78
2019-05-20T02:08:52.311Z,12.74
2019-05-20T02:11:21.812Z,12.58
2019-05-20T02:13:53.336Z,12.58
2019-05-20T02:16:24.686Z,12.58
2019-05-20T02:18:54.173Z,12.57
2019-05-20T02:21:23.747Z,12.52
2019-05-20T02:23:53.292Z,12.52
2019-05-20T02:26:24.563Z,12.50
2019-05-20T02:28:57.023Z,12.43
2019-05-20T02:31:26.524Z,12.40
2019-05-20T02:34:02.034Z,12.40
2019-05-20T02:36:31.490Z,12.29
2019-05-20T02:39:00.963Z,12.31
2019-05-20T02:41:30.473Z,12.27
2019-05-20T02:43:59.995Z,12.22
2019-05-20T02:46:29.708Z,12.08
2019-05-20T02:48:59.257Z,11.99
2019-05-20T02:51:30.394Z,11.94
2019-05-20T02:54:02.189Z,11.92
2019-05-20T02:56:32.835Z,11.81
2019-05-20T02:59:03.284Z,11.78
2019-05-20T03:01:32.823Z,11.68
2019-05-20T03:04:11.809Z,11.67
2019-05-20T03:06:33.624Z,11.61
2019-05-20T03:09:04.041Z,11.56
2019-05-20T03:11:39.345Z,11.57
2019-05-20T03:14:08.915Z,11.58
2019-05-20T03:16:38.404Z,11.57
2019-05-20T03:19:07.891Z,11.51
2019-05-20T03:21:38.960Z,11.49
2019-05-20T03:24:08.415Z,11.50
2019-05-20T03:26:37.958Z,11.50
2019-05-20T03:29:07.425Z,11.45
2019-05-20T03:31:36.948Z,11.37
2019-05-20T03:34:06.473Z,11.25
2019-05-20T03:36:35.927Z,11.24
2019-05-20T03:39:07.227Z,11.26
2019-05-20T03:41:36.709Z,11.26
2019-05-20T03:44:06.235Z,11.33
2019-05-20T03:46:35.766Z,11.29
2019-05-20T03:49:05.532Z,11.29
2019-05-20T03:51:35.097Z,11.26
2019-05-20T03:54:04.819Z,11.26
2019-05-20T03:56:34.314Z,11.25
2019-05-20T03:59:04.888Z,11.28
2019-05-20T04:01:34.395Z,11.32
2019-05-20T04:04:03.877Z,11.29
2019-05-20T04:06:33.371Z,11.27
2019-05-20T04:09:03.010Z,11.31
2019-05-20T04:11:32.550Z,11.31
2019-05-20T04:14:02.038Z,11.35
2019-05-20T04:16:31.503Z,11.08
2019-05-20T04:19:01.038Z,11.02
2019-05-20T04:21:30.512Z,11.13
2019-05-20T04:24:01.390Z,11.26
2019-05-20T04:26:31.195Z,11.37
2019-05-20T04:29:00.732Z,11.42
2019-05-20T04:31:30.256Z,11.50
2019-05-20T04:33:59.943Z,11.51
2019-05-20T04:36:30.023Z,11.51
2019-05-20T04:38:59.477Z,11.64
2019-05-20T04:41:48.289Z,11.71
2019-05-20T04:44:17.763Z,11.89
2019-05-20T04:46:47.560Z,12.02
2019-05-20T04:49:17.047Z,12.19
2019-05-20T04:51:46.548Z,12.28
2019-05-20T04:54:16.121Z,12.32
2019-05-20T04:56:45.630Z,12.45
2019-05-20T04:59:15.956Z,12.24
2019-05-20T05:01:45.417Z,12.41
2019-05-20T05:04:15.379Z,12.63
2019-05-20T05:06:46.559Z,12.82
2019-05-20T05:09:16.219Z,12.98
2019-05-20T05:11:45.992Z,13.13
2019-05-20T05:14:16.561Z,13.20
2019-05-20T05:16:46.192Z,13.42
2019-05-20T05:19:18.671Z,13.55
2019-05-20T05:21:48.196Z,13.71
2019-05-20T05:24:17.857Z,14.00
2019-05-20T05:26:48.014Z,14.16
2019-05-20T05:29:17.660Z,14.40
2019-05-20T05:31:47.215Z,14.52
2019-05-20T05:34:16.955Z,14.71
2019-05-20T05:36:46.747Z,14.93
2019-05-20T05:39:16.198Z,15.14
2019-05-20T05:41:45.797Z,15.44
2019-05-20T05:44:15.276Z,15.44
2019-05-20T05:46:44.790Z,15.76
2019-05-20T05:49:14.283Z,16.09
2019-05-20T05:51:43.785Z,16.37
2019-05-20T05:54:13.334Z,16.57
2019-05-20T05:56:42.839Z,16.75
2019-05-20T05:59:12.377Z,16.72
2019-05-20T06:01:41.884Z,16.90
2019-05-20T06:04:11.697Z,16.72
2019-05-20T06:06:41.200Z,16.37
2019-05-20T06:09:10.689Z,16.18
2019-05-20T06:11:40.195Z,16.62
2019-05-20T06:14:09.702Z,16.67
2019-05-20T06:16:39.192Z,16.89
2019-05-20T06:19:08.690Z,17.16
2019-05-20T06:21:38.182Z,17.10
2019-05-20T06:24:07.698Z,17.40
2019-05-20T06:26:37.304Z,17.48
2019-05-20T06:29:26.105Z,17.48
2019-05-20T06:31:55.692Z,16.91
2019-05-20T06:34:25.398Z,16.76
2019-05-20T06:36:57.094Z,16.96
2019-05-20T06:39:27.361Z,17.45
2019-05-20T06:41:56.828Z,17.07
2019-05-20T06:44:26.785Z,17.31
2019-05-20T06:46:56.425Z,17.76
2019-05-20T06:49:25.935Z,17.57
2019-05-20T06:51:55.437Z,17.64
2019-05-20T06:54:24.956Z,17.73
2019-05-20T06:56:54.475Z,17.90
2019-05-20T06:59:23.969Z,17.38
2019-05-20T07:01:53.722Z,17.82
2019-05-20T07:04:23.266Z,18.20
2019-05-20T07:06:52.759Z,18.72
2019-05-20T07:09:22.277Z,18.60
2019-05-20T07:11:53.106Z,18.67
2019-05-20T07:14:22.826Z,19.13
2019-05-20T07:16:52.329Z,19.67
2019-05-20T07:19:21.888Z,19.11
2019-05-20T07:21:51.402Z,19.09
2019-05-20T07:24:20.902Z,18.98
2019-05-20T07:26:50.474Z,19.30
2019-05-20T07:29:19.936Z,19.82
2019-05-20T07:31:49.549Z,20.02
2019-05-20T07:34:19.034Z,20.54
2019-05-20T07:37:03.033Z,21.20
2019-05-20T07:39:30.170Z,21.75
2019-05-20T07:41:59.706Z,21.60
2019-05-20T07:44:29.347Z,22.48
2019-05-20T07:46:59.184Z,21.54
2019-05-20T07:49:28.984Z,23.47
2019-05-20T07:51:59.689Z,24.95
2019-05-20T07:54:30.001Z,26.61
2019-05-20T07:57:04.033Z,24.87
2019-05-20T07:59:35.916Z,23.41
2019-05-20T08:02:05.836Z,21.81
2019-05-20T08:04:35.453Z,22.84
2019-05-20T08:07:26.089Z,21.31
2019-05-20T08:09:44.665Z,20.53
2019-05-20T08:12:08.071Z,21.08
2019-05-20T08:14:37.782Z,21.23
2019-05-20T08:17:08.781Z,22.56
2019-05-20T08:19:38.332Z,23.73
2019-05-20T08:22:08.041Z,22.95
2019-05-20T08:24:37.503Z,22.77
2019-05-20T08:27:08.519Z,23.26
2019-05-20T08:29:38.081Z,22.56
2019-05-20T08:32:26.986Z,22.40
2019-05-20T08:34:56.552Z,20.73
2019-05-20T08:37:26.018Z,21.13
2019-05-20T08:39:55.623Z,22.34
2019-05-20T08:42:25.231Z,22.86
2019-05-20T08:44:54.765Z,23.25
2019-05-20T08:47:24.291Z,22.26
2019-05-20T08:49:56.236Z,22.55
2019-05-20T08:52:25.833Z,22.85
2019-05-20T08:54:55.321Z,23.01
2019-05-20T08:57:24.867Z,22.06
2019-05-20T08:59:54.344Z,21.91
2019-05-20T09:02:23.853Z,22.15
2019-05-20T09:04:53.457Z,22.44
2019-05-20T09:07:23.047Z,22.57
2019-05-20T09:09:52.497Z,22.31
2019-05-20T09:12:22.103Z,22.79
2019-05-20T09:14:51.606Z,22.63
2019-05-20T09:17:21.125Z,23.50
2019-05-20T09:19:50.734Z,24.26
2019-05-20T09:22:20.445Z,24.13
2019-05-20T09:24:50.379Z,23.35
2019-05-20T09:27:20.834Z,22.62
2019-05-20T09:29:50.451Z,21.51
2019-05-20T09:32:20.117Z,21.76
2019-05-20T09:34:50.292Z,22.18
2019-05-20T09:37:19.889Z,21.56
2019-05-20T09:39:49.535Z,22.29
2019-05-20T09:42:19.024Z,21.57
2019-05-20T09:45:09.163Z,21.51
2019-05-20T09:47:47.810Z,22.30
2019-05-20T09:50:17.441Z,22.19
2019-05-20T09:52:46.936Z,22.98
2019-05-20T09:55:16.761Z,23.72
2019-05-20T09:57:46.281Z,23.22
2019-05-20T10:00:16.343Z,24.67
2019-05-20T10:02:45.986Z,23.49
2019-05-20T10:05:15.658Z,24.18
2019-05-20T10:07:45.164Z,25.48
2019-05-20T10:10:15.332Z,25.81
2019-05-20T10:12:46.778Z,26.40
2019-05-20T10:15:35.529Z,26.79
2019-05-20T10:18:05.164Z,26.94
2019-05-20T10:20:34.950Z,26.71
2019-05-20T10:23:04.491Z,24.68
2019-05-20T10:25:33.956Z,25.80
2019-05-20T10:28:03.443Z,25.63
2019-05-20T10:30:33.096Z,25.75
2019-05-20T10:33:02.768Z,26.80
2019-05-20T10:35:32.289Z,26.33
2019-05-20T10:38:01.877Z,26.67
2019-05-20T10:40:31.383Z,24.97
2019-05-20T10:43:01.019Z,26.18
2019-05-20T10:45:30.700Z,26.31
2019-05-20T10:48:00.268Z,26.86
2019-05-20T10:50:29.816Z,26.09
2019-05-20T10:52:59.414Z,24.58
2019-05-20T10:55:28.939Z,24.99
2019-05-20T10:57:58.458Z,24.93
2019-05-20T11:00:28.343Z,25.76
2019-05-20T11:02:57.938Z,25.72
2019-05-20T11:05:27.400Z,24.71
2019-05-20T11:07:57.005Z,26.89
2019-05-20T11:10:26.592Z,27.64
2019-05-20T11:12:56.062Z,27.20
2019-05-20T11:15:25.579Z,27.52
2019-05-20T11:17:55.189Z,27.70
2019-05-20T11:20:24.689Z,28.45
2019-05-20T11:22:54.257Z,26.00
2019-05-20T11:25:23.805Z,27.88
2019-05-20T11:27:53.312Z,28.59
2019-05-20T11:30:22.893Z,28.87
2019-05-20T11:32:52.401Z,27.54
2019-05-20T11:35:21.970Z,26.92
2019-05-20T11:37:51.634Z,26.12
2019-05-20T11:40:21.549Z,26.10
2019-05-20T11:42:51.026Z,26.60
2019-05-20T11:45:21.017Z,26.38
2019-05-20T11:48:09.937Z,26.36
2019-05-20T11:50:40.077Z,25.58
2019-05-20T11:53:09.878Z,26.38
2019-05-20T11:55:39.387Z,26.08
2019-05-20T11:58:15.782Z,25.82
2019-05-20T12:00:40.528Z,25.88
2019-05-20T12:03:10.299Z,25.50
2019-05-20T12:05:39.985Z,26.41
2019-05-20T12:08:28.755Z,27.78
2019-05-20T12:10:58.451Z,28.85
2019-05-20T12:13:29.025Z,26.74
2019-05-20T12:15:58.787Z,27.13
2019-05-20T12:18:28.312Z,28.65
2019-05-20T12:20:57.800Z,27.00
2019-05-20T12:23:27.274Z,28.77
2019-05-20T12:25:56.919Z,27.94
2019-05-20T12:28:26.407Z,25.84
2019-05-20T12:30:55.909Z,26.38
2019-05-20T12:33:44.729Z,26.72
2019-05-20T12:36:14.230Z,27.97
2019-05-20T12:38:43.761Z,27.52
2019-05-20T12:41:13.242Z,27.80
2019-05-20T12:43:44.963Z,26.51
2019-05-20T12:46:14.338Z,26.46
2019-05-20T12:48:43.908Z,25.35
2019-05-20T12:51:32.766Z,26.16
2019-05-20T12:54:02.540Z,28.52
2019-05-20T12:56:32.022Z,27.77
2019-05-20T12:59:01.601Z,28.55
2019-05-20T13:01:31.083Z,27.24
2019-05-20T13:04:00.644Z,28.83
2019-05-20T13:06:30.127Z,29.22
2019-05-20T13:08:59.610Z,28.75
2019-05-20T13:11:29.078Z,26.04
2019-05-20T13:13:58.559Z,26.92
2019-05-20T13:16:28.104Z,28.21
2019-05-20T13:18:57.599Z,28.71
2019-05-20T13:21:27.065Z,26.59
2019-05-20T13:23:57.689Z,26.85
2019-05-20T13:26:27.465Z,26.80
2019-05-20T13:28:59.690Z,27.14
2019-05-20T13:31:47.501Z,26.78
2019-05-20T13:34:18.459Z,26.33
2019-05-20T13:37:07.759Z,26.16
2019-05-20T13:39:38.869Z,25.07
2019-05-20T13:42:08.691Z,23.68
2019-05-20T13:44:38.421Z,23.42
2019-05-20T13:47:08.064Z,23.93
2019-05-20T13:49:37.530Z,23.08
2019-05-20T13:52:07.453Z,22.99
2019-05-20T13:54:56.278Z,22.63
2019-05-20T13:57:25.854Z,22.09
2019-05-20T13:59:55.382Z,21.74
2019-05-20T14:02:24.897Z,22.26
2019-05-20T14:04:55.897Z,23.05
2019-05-20T14:07:25.368Z,23.67
2019-05-20T14:09:54.946Z,24.54
2019-05-20T14:12:24.556Z,25.34
2019-05-20T14:14:54.019Z,26.20
2019-05-20T14:17:23.553Z,27.79
2019-05-20T14:19:53.078Z,28.24
2019-05-20T14:22:22.663Z,27.87
2019-05-20T14:24:52.172Z,26.26
2019-05-20T14:27:41.220Z,26.28
2019-05-20T14:30:11.641Z,26.78
2019-05-20T14:32:41.167Z,26.19
2019-05-20T14:35:12.237Z,26.32
2019-05-20T14:37:41.682Z,26.31
2019-05-20T14:40:11.700Z,26.34
2019-05-20T14:43:00.624Z,26.26
2019-05-20T14:45:30.125Z,25.75
2019-05-20T14:47:59.777Z,24.93
2019-05-20T14:50:29.278Z,25.73
2019-05-20T14:52:59.184Z,25.83
2019-05-20T14:55:28.760Z,23.22
2019-05-20T14:57:58.347Z,21.60
2019-05-20T15:00:27.811Z,20.59
2019-05-20T15:02:57.281Z,20.85
2019-05-20T15:05:27.127Z,20.13
2019-05-20T15:07:56.579Z,20.06
2019-05-20T15:10:26.202Z,20.09
2019-05-20T15:13:15.040Z,20.26
2019-05-20T15:16:03.875Z,19.41
2019-05-20T15:18:33.363Z,20.20
2019-05-20T15:21:02.832Z,20.35
2019-05-20T15:23:32.328Z,20.31
2019-05-20T15:26:01.812Z,20.48
2019-05-20T15:28:31.318Z,20.65
2019-05-20T15:31:00.785Z,20.58
2019-05-20T15:33:30.375Z,20.75
2019-05-20T15:35:59.829Z,20.79
2019-05-20T15:38:29.303Z,20.49
2019-05-20T15:40:58.929Z,20.73
2019-05-20T15:43:28.400Z,21.33
2019-05-20T15:45:57.968Z,21.73
2019-05-20T15:48:27.495Z,22.07
2019-05-20T15:50:56.979Z,22.08
2019-05-20T15:53:26.511Z,21.41
2019-05-20T15:55:56.045Z,19.79
2019-05-20T15:58:25.575Z,20.01
2019-05-20T16:00:55.131Z,19.56
2019-05-20T16:03:24.640Z,19.71
2019-05-20T16:05:54.612Z,20.10
2019-05-20T16:08:24.082Z,19.84
2019-05-20T16:10:53.723Z,19.89
2019-05-20T16:13:42.495Z,18.80
2019-05-20T16:16:13.144Z,18.45
2019-05-20T16:18:42.805Z,18.24
2019-05-20T16:21:12.375Z,17.95
2019-05-20T16:23:41.914Z,17.99
2019-05-20T16:26:30.732Z,17.61
2019-05-20T16:29:00.433Z,17.40
2019-05-20T16:31:30.577Z,17.64
2019-05-20T16:34:00.095Z,17.40
2019-05-20T16:36:29.839Z,17.07
2019-05-20T16:38:59.333Z,16.87
2019-05-20T16:41:28.841Z,16.68
2019-05-20T16:43:58.304Z,16.81
2019-05-20T16:46:27.846Z,16.85
2019-05-20T16:48:57.354Z,16.70
2019-05-20T16:51:26.869Z,16.72
2019-05-20T16:53:56.419Z,16.59
2019-05-20T16:56:25.960Z,16.44
2019-05-20T16:58:55.452Z,16.43
2019-05-20T17:01:25.026Z,16.44
2019-05-20T17:03:54.699Z,16.40
2019-05-20T17:06:44.492Z,16.09
2019-05-20T17:09:13.950Z,16.51
2019-05-20T17:11:43.577Z,16.57
2019-05-20T17:14:13.065Z,16.48
2019-05-20T17:16:42.689Z,16.42
2019-05-20T17:19:12.230Z,16.47
2019-05-20T17:21:41.750Z,16.54
2019-05-20T17:24:14.386Z,16.64
2019-05-20T17:26:43.864Z,16.73
2019-05-20T17:29:13.499Z,16.72
2019-05-20T17:31:43.139Z,16.67
2019-05-20T17:34:12.825Z,16.84
2019-05-20T17:36:42.324Z,16.95
2019-05-20T17:39:11.834Z,16.97
2019-05-20T17:41:41.304Z,16.95
2019-05-20T17:44:10.963Z,16.98
2019-05-20T17:46:40.701Z,16.91
2019-05-20T17:49:11.951Z,16.95
2019-05-20T17:52:02.677Z,16.97
2019-05-20T17:54:32.183Z,16.86
2019-05-20T17:57:01.666Z,16.99
2019-05-20T17:59:31.541Z,17.11
2019-05-20T18:02:01.034Z,17.17
2019-05-20T18:04:49.855Z,17.08
2019-05-20T18:07:19.492Z,16.97
2019-05-20T18:10:01.051Z,17.01
2019-05-20T18:12:30.557Z,16.97
2019-05-20T18:15:01.719Z,16.67
2019-05-20T18:17:31.305Z,16.81
2019-05-20T18:20:00.775Z,16.73
2019-05-20T18:22:30.423Z,16.79
2019-05-20T18:25:00.031Z,16.88
2019-05-20T18:27:48.866Z,16.82
2019-05-20T18:30:19.024Z,16.95
2019-05-20T18:32:48.500Z,16.81
2019-05-20T18:35:18.243Z,16.86
2019-05-20T18:37:47.819Z,16.80
2019-05-20T18:40:17.896Z,16.82
2019-05-20T18:42:47.368Z,16.69
2019-05-20T18:45:19.465Z,16.60
2019-05-20T18:47:48.965Z,16.51
2019-05-20T18:50:18.940Z,16.45
2019-05-20T18:52:48.703Z,16.43
2019-05-20T18:55:19.062Z,16.39
2019-05-20T18:57:48.514Z,16.33
2019-05-20T19:00:18.909Z,16.31
2019-05-20T19:02:48.411Z,16.32
2019-05-20T19:05:37.269Z,16.31
2019-05-20T19:08:07.233Z,16.32
2019-05-20T19:10:36.725Z,16.32
2019-05-20T19:13:07.766Z,16.12
2019-05-20T19:15:37.394Z,16.13
2019-05-20T19:18:07.149Z,16.15
2019-05-20T19:20:36.896Z,16.05
2019-05-20T19:23:06.385Z,15.87
2019-05-20T19:25:38.069Z,15.98
2019-05-20T19:28:26.607Z,15.98
2019-05-20T19:30:56.164Z,15.88
2019-05-20T19:33:25.859Z,15.79
2019-05-20T19:35:55.578Z,15.56
2019-05-20T19:38:25.073Z,15.59
2019-05-20T19:40:54.533Z,15.50
2019-05-20T19:43:24.029Z,15.40
2019-05-20T19:45:53.516Z,15.52
2019-05-20T19:48:23.049Z,15.48
2019-05-20T19:50:52.554Z,15.39
2019-05-20T19:53:41.365Z,15.02
2019-05-20T19:56:12.425Z,15.48
2019-05-20T19:58:41.985Z,15.61
2019-05-20T20:01:11.478Z,15.67
2019-05-20T20:03:41.167Z,15.56
2019-05-20T20:06:10.899Z,15.41
2019-05-20T20:09:00.105Z,15.29
2019-05-20T20:11:29.611Z,15.34
2019-05-20T20:14:18.470Z,15.24
2019-05-20T20:16:47.977Z,15.32
2019-05-20T20:19:17.485Z,15.41
2019-05-20T20:21:46.971Z,15.50
2019-05-20T20:24:16.477Z,15.52
2019-05-20T20:26:45.970Z,15.51
2019-05-20T20:29:15.451Z,15.44
2019-05-20T20:31:45.089Z,15.41
2019-05-20T20:34:14.735Z,15.37
2019-05-20T20:36:44.362Z,15.53
2019-05-20T20:39:13.928Z,15.60
2019-05-20T20:41:43.496Z,15.57
2019-05-20T20:44:12.987Z,15.59
2019-05-20T20:46:42.489Z,15.55
2019-05-20T20:49:14.864Z,15.40
2019-05-20T20:51:44.544Z,15.29
2019-05-20T20:54:14.011Z,15.10
2019-05-20T20:56:43.511Z,15.29
2019-05-20T20:59:13.045Z,15.43
2019-05-20T21:01:42.507Z,15.46
2019-05-20T21:04:12.005Z,15.51
2019-05-20T21:06:41.552Z,15.55
2019-05-20T21:09:11.221Z,15.37
2019-05-20T21:11:40.754Z,15.16
2019-05-20T21:14:10.271Z,15.13
2019-05-20T21:16:39.763Z,15.11
2019-05-20T21:19:09.232Z,15.13
2019-05-20T21:21:38.787Z,15.06
2019-05-20T21:24:08.378Z,14.96
2019-05-20T21:26:37.827Z,14.95
2019-05-20T21:29:07.332Z,15.09
2019-05-20T21:31:36.840Z,15.07
2019-05-20T21:34:26.015Z,15.03
2019-05-20T21:36:55.491Z,15.03
2019-05-20T21:39:25.008Z,15.07
2019-05-20T21:41:54.579Z,15.11
2019-05-20T21:44:24.078Z,15.25
2019-05-20T21:46:53.541Z,15.27
2019-05-20T21:49:23.031Z,15.22
2019-05-20T21:51:52.595Z,15.29
2019-05-20T21:54:22.169Z,15.21
2019-05-20T21:56:51.737Z,15.16
2019-05-20T21:59:21.215Z,15.14
2019-05-20T22:01:50.898Z,15.23
2019-05-20T22:04:20.396Z,15.21
2019-05-20T22:07:09.272Z,15.20
2019-05-20T22:09:39.220Z,15.15
2019-05-20T22:12:08.633Z,14.97
2019-05-20T22:14:38.117Z,15.04
2019-05-20T22:17:07.634Z,15.13
2019-05-20T22:19:37.143Z,15.19
2019-05-20T22:22:08.486Z,15.23
2019-05-20T22:24:38.257Z,15.28
2019-05-20T22:27:07.724Z,15.31
2019-05-20T22:29:37.326Z,15.20
2019-05-20T22:32:06.867Z,15.14
2019-05-20T22:34:36.421Z,15.30
2019-05-20T22:37:06.128Z,15.12
2019-05-20T22:39:35.619Z,15.14
2019-05-20T22:42:05.303Z,15.07
2019-05-20T22:44:34.771Z,15.09
2019-05-20T22:47:04.520Z,15.14
2019-05-20T22:49:34.152Z,15.14
2019-05-20T22:52:03.665Z,15.18
2019-05-20T22:54:33.181Z,15.14
2019-05-20T22:57:02.736Z,15.05
2019-05-20T22:59:32.211Z,15.08
2019-05-20T23:02:01.720Z,15.08
2019-05-20T23:04:31.293Z,15.08
2019-05-20T23:07:00.757Z,15.08
2019-05-20T23:09:30.259Z,15.10
2019-05-20T23:11:59.974Z,15.03
2019-05-20T23:14:29.492Z,14.99
2019-05-20T23:16:58.997Z,14.91
2019-05-20T23:19:28.509Z,14.90
2019-05-20T23:21:57.982Z,14.96
2019-05-20T23:24:27.570Z,14.94
2019-05-20T23:26:57.048Z,14.92
2019-05-20T23:29:26.522Z,14.91
2019-05-20T23:31:56.100Z,14.79
2019-05-20T23:34:44.897Z,14.79
2019-05-20T23:37:14.417Z,14.91
2019-05-20T23:39:43.925Z,15.05
2019-05-20T23:42:13.383Z,15.09
2019-05-20T23:44:42.888Z,15.06
2019-05-20T23:47:12.452Z,15.02
2019-05-20T23:49:41.909Z,14.94
2019-05-20T23:52:11.632Z,14.88
2019-05-20T23:54:41.311Z,14.90
2019-05-20T23:57:10.819Z,14.87
2019-05-20T23:59:40.364Z,14.93
